sensor_id;sensor_type;location;lat;lon;timestamp;noise_LAeq;noise_LA_min;noise_LA_max;noise_LA01;noise_LA95
41518;Laerm;27249;48.094;-1.690;2023-08-07T00:01:18;47.79;41.96;60.36;;
41518;Laerm;27249;48.094;-1.690;2023-08-07T00:03:43;43.80;41.30;48.83;;
41518;Laerm;27249;48.094;-1.690;2023-08-07T00:06:09;49.00;41.38;59.75;;
41518;Laerm;27249;48.094;-1.690;2023-08-07T00:08:34;43.56;41.53;53.13;;
41518;Laerm;27249;48.094;-1.690;2023-08-07T00:11:07;44.50;41.22;52.96;;
41518;Laerm;27249;48.094;-1.690;2023-08-07T00:13:33;49.50;41.22;63.62;;
41518;Laerm;27249;48.094;-1.690;2023-08-07T00:15:58;43.67;41.46;50.62;;
41518;Laerm;27249;48.094;-1.690;2023-08-07T00:18:23;48.53;42.35;57.47;;
41518;Laerm;27249;48.094;-1.690;2023-08-07T00:20:48;49.25;41.82;64.67;;
41518;Laerm;27249;48.094;-1.690;2023-08-07T00:23:14;44.68;41.89;51.64;;
41518;Laerm;27249;48.094;-1.690;2023-08-07T00:25:39;52.62;41.75;69.83;;
41518;Laerm;27249;48.094;-1.690;2023-08-07T00:28:04;47.49;41.30;58.91;;
41518;Laerm;27249;48.094;-1.690;2023-08-07T00:30:29;47.22;41.22;59.02;;
41518;Laerm;27249;48.094;-1.690;2023-08-07T00:32:55;43.75;40.80;55.98;;
41518;Laerm;27249;48.094;-1.690;2023-08-07T00:35:20;46.73;41.53;58.89;;
41518;Laerm;27249;48.094;-1.690;2023-08-07T00:37:45;47.80;41.14;61.10;;
41518;Laerm;27249;48.094;-1.690;2023-08-07T00:40:10;47.96;41.96;59.56;;
41518;Laerm;27249;48.094;-1.690;2023-08-07T00:42:36;43.80;41.48;54.08;;
41518;Laerm;27249;48.094;-1.690;2023-08-07T00:45:01;43.86;41.61;54.47;;
41518;Laerm;27249;48.094;-1.690;2023-08-07T00:47:26;43.72;41.22;48.82;;
41518;Laerm;27249;48.094;-1.690;2023-08-07T00:49:51;43.72;41.75;46.71;;
41518;Laerm;27249;48.094;-1.690;2023-08-07T00:52:17;44.63;41.89;52.80;;
41518;Laerm;27249;48.094;-1.690;2023-08-07T00:54:42;43.59;41.30;45.48;;
41518;Laerm;27249;48.094;-1.690;2023-08-07T00:57:11;43.50;40.71;45.75;;
41518;Laerm;27249;48.094;-1.690;2023-08-07T00:59:37;47.74;40.98;58.29;;
41518;Laerm;27249;48.094;-1.690;2023-08-07T01:02:03;43.61;41.30;46.05;;
41518;Laerm;27249;48.094;-1.690;2023-08-07T01:04:28;43.39;40.13;45.30;;
41518;Laerm;27249;48.094;-1.690;2023-08-07T01:06:54;44.20;41.22;53.10;;
41518;Laerm;27249;48.094;-1.690;2023-08-07T01:09:19;46.61;41.75;55.75;;
41518;Laerm;27249;48.094;-1.690;2023-08-07T01:11:47;43.65;41.75;45.30;;
41518;Laerm;27249;48.094;-1.690;2023-08-07T01:14:18;43.71;41.22;54.39;;
41518;Laerm;27249;48.094;-1.690;2023-08-07T01:19:19;47.76;41.61;60.14;;
41518;Laerm;27249;48.094;-1.690;2023-08-07T01:22:03;49.94;41.53;63.54;;
41518;Laerm;27249;48.094;-1.690;2023-08-07T01:24:28;46.26;42.03;55.05;;
41518;Laerm;27249;48.094;-1.690;2023-08-07T01:26:53;46.48;41.53;56.11;;
41518;Laerm;27249;48.094;-1.690;2023-08-07T01:29:23;43.78;41.75;51.91;;
41518;Laerm;27249;48.094;-1.690;2023-08-07T01:31:51;43.67;41.14;47.76;;
41518;Laerm;27249;48.094;-1.690;2023-08-07T01:34:18;43.95;41.61;47.36;;
41518;Laerm;27249;48.094;-1.690;2023-08-07T01:36:46;43.86;41.53;51.85;;
41518;Laerm;27249;48.094;-1.690;2023-08-07T01:39:12;45.00;41.82;54.27;;
41518;Laerm;27249;48.094;-1.690;2023-08-07T01:41:38;50.87;42.09;64.82;;
41518;Laerm;27249;48.094;-1.690;2023-08-07T01:44:03;45.50;41.89;65.46;;
41518;Laerm;27249;48.094;-1.690;2023-08-07T01:46:29;46.23;42.53;66.83;;
41518;Laerm;27249;48.094;-1.690;2023-08-07T01:48:54;50.01;42.47;62.53;;
41518;Laerm;27249;48.094;-1.690;2023-08-07T01:51:19;47.96;42.22;69.86;;
41518;Laerm;27249;48.094;-1.690;2023-08-07T01:53:44;47.64;41.89;60.89;;
41518;Laerm;27249;48.094;-1.690;2023-08-07T01:56:10;49.80;42.29;64.88;;
41518;Laerm;27249;48.094;-1.690;2023-08-07T01:58:35;44.46;42.22;48.51;;
41518;Laerm;27249;48.094;-1.690;2023-08-07T02:01:00;44.60;42.22;53.07;;
41518;Laerm;27249;48.094;-1.690;2023-08-07T02:03:25;51.46;42.29;64.95;;
41518;Laerm;27249;48.094;-1.690;2023-08-07T02:05:50;45.68;42.16;64.83;;
41518;Laerm;27249;48.094;-1.690;2023-08-07T02:08:16;48.99;42.16;59.67;;
41518;Laerm;27249;48.094;-1.690;2023-08-07T02:10:42;46.19;41.68;58.91;;
41518;Laerm;27249;48.094;-1.690;2023-08-07T02:13:07;49.46;42.35;61.19;;
41518;Laerm;27249;48.094;-1.690;2023-08-07T02:15:32;47.84;42.03;60.73;;
41518;Laerm;27249;48.094;-1.690;2023-08-07T02:17:57;47.64;41.68;56.91;;
41518;Laerm;27249;48.094;-1.690;2023-08-07T02:20:22;43.93;41.61;52.07;;
41518;Laerm;27249;48.094;-1.690;2023-08-07T02:22:48;43.93;41.75;50.72;;
41518;Laerm;27249;48.094;-1.690;2023-08-07T02:25:13;48.53;42.35;57.88;;
41518;Laerm;27249;48.094;-1.690;2023-08-07T02:27:38;46.33;42.22;61.40;;
41518;Laerm;27249;48.094;-1.690;2023-08-07T02:30:04;45.98;42.29;55.22;;
41518;Laerm;27249;48.094;-1.690;2023-08-07T02:32:30;46.42;41.68;54.61;;
41518;Laerm;27249;48.094;-1.690;2023-08-07T02:34:55;46.44;41.82;55.58;;
41518;Laerm;27249;48.094;-1.690;2023-08-07T02:37:20;48.49;41.89;59.55;;
41518;Laerm;27249;48.094;-1.690;2023-08-07T02:39:46;48.48;42.29;58.93;;
41518;Laerm;27249;48.094;-1.690;2023-08-07T02:42:11;54.51;42.03;68.84;;
41518;Laerm;27249;48.094;-1.690;2023-08-07T02:44:37;47.74;42.53;56.74;;
41518;Laerm;27249;48.094;-1.690;2023-08-07T02:47:02;51.76;42.47;69.81;;
41518;Laerm;27249;48.094;-1.690;2023-08-07T02:49:27;51.25;42.98;66.71;;
41518;Laerm;27249;48.094;-1.690;2023-08-07T02:51:52;44.61;42.35;50.15;;
41518;Laerm;27249;48.094;-1.690;2023-08-07T02:54:18;50.62;42.65;65.19;;
41518;Laerm;27249;48.094;-1.690;2023-08-07T02:56:43;47.51;42.35;59.43;;
41518;Laerm;27249;48.094;-1.690;2023-08-07T02:59:08;44.58;41.61;53.41;;
41518;Laerm;27249;48.094;-1.690;2023-08-07T03:01:33;45.52;42.09;53.34;;
41518;Laerm;27249;48.094;-1.690;2023-08-07T03:03:59;49.35;41.82;65.56;;
41518;Laerm;27249;48.094;-1.690;2023-08-07T03:06:24;49.94;42.29;66.36;;
41518;Laerm;27249;48.094;-1.690;2023-08-07T03:08:49;51.76;42.47;68.16;;
41518;Laerm;27249;48.094;-1.690;2023-08-07T03:11:14;44.73;42.41;51.35;;
41518;Laerm;27249;48.094;-1.690;2023-08-07T03:13:40;53.91;42.41;69.45;;
41518;Laerm;27249;48.094;-1.690;2023-08-07T03:16:07;53.35;42.64;65.03;;
41518;Laerm;27249;48.094;-1.690;2023-08-07T03:18:32;56.35;41.75;81.97;;
41518;Laerm;27249;48.094;-1.690;2023-08-07T03:20:58;50.21;42.41;62.72;;
41518;Laerm;27249;48.094;-1.690;2023-08-07T03:23:23;45.95;41.75;54.47;;
41518;Laerm;27249;48.094;-1.690;2023-08-07T03:25:49;49.63;42.53;64.18;;
41518;Laerm;27249;48.094;-1.690;2023-08-07T03:28:15;53.48;42.98;66.03;;
41518;Laerm;27249;48.094;-1.690;2023-08-07T03:30:40;47.86;42.82;58.86;;
41518;Laerm;27249;48.094;-1.690;2023-08-07T03:33:05;49.23;42.98;60.19;;
41518;Laerm;27249;48.094;-1.690;2023-08-07T03:35:31;48.38;42.76;60.02;;
41518;Laerm;27249;48.094;-1.690;2023-08-07T03:37:56;49.83;42.93;61.29;;
41518;Laerm;27249;48.094;-1.690;2023-08-07T03:40:22;46.45;43.04;57.92;;
41518;Laerm;27249;48.094;-1.690;2023-08-07T03:42:47;52.51;42.82;67.45;;
41518;Laerm;27249;48.094;-1.690;2023-08-07T03:45:13;53.38;43.63;65.27;;
41518;Laerm;27249;48.094;-1.690;2023-08-07T03:47:38;50.19;42.71;73.74;;
41518;Laerm;27249;48.094;-1.690;2023-08-07T03:50:04;50.07;43.19;63.61;;
41518;Laerm;27249;48.094;-1.690;2023-08-07T03:52:29;48.44;42.41;61.03;;
41518;Laerm;27249;48.094;-1.690;2023-08-07T03:54:54;50.31;42.76;58.22;;
41518;Laerm;27249;48.094;-1.690;2023-08-07T03:57:19;54.08;43.58;67.01;;
41518;Laerm;27249;48.094;-1.690;2023-08-07T03:59:45;50.32;43.04;62.43;;
41518;Laerm;27249;48.094;-1.690;2023-08-07T04:02:10;51.85;42.65;64.72;;
41518;Laerm;27249;48.094;-1.690;2023-08-07T04:04:35;52.07;42.47;65.52;;
41518;Laerm;27249;48.094;-1.690;2023-08-07T04:07:00;52.27;43.34;69.01;;
41518;Laerm;27249;48.094;-1.690;2023-08-07T04:09:26;55.31;43.58;71.85;;
41518;Laerm;27249;48.094;-1.690;2023-08-07T04:11:51;53.28;44.43;67.93;;
41518;Laerm;27249;48.094;-1.690;2023-08-07T04:14:16;56.49;44.31;72.61;;
41518;Laerm;27249;48.094;-1.690;2023-08-07T04:16:41;52.76;44.39;64.67;;
41518;Laerm;27249;48.094;-1.690;2023-08-07T04:19:06;52.43;43.77;73.42;;
41518;Laerm;27249;48.094;-1.690;2023-08-07T04:21:32;49.47;43.34;65.98;;
41518;Laerm;27249;48.094;-1.690;2023-08-07T04:23:58;54.53;43.58;74.62;;
41518;Laerm;27249;48.094;-1.690;2023-08-07T04:26:25;51.17;43.86;63.22;;
41518;Laerm;27249;48.094;-1.690;2023-08-07T04:28:50;52.11;43.68;69.65;;
41518;Laerm;27249;48.094;-1.690;2023-08-07T04:31:15;55.54;43.24;84.64;;
41518;Laerm;27249;48.094;-1.690;2023-08-07T04:33:40;51.76;44.87;61.93;;
41518;Laerm;27249;48.094;-1.690;2023-08-07T04:36:06;55.12;44.31;63.96;;
41518;Laerm;27249;48.094;-1.690;2023-08-07T04:38:31;57.01;44.35;74.67;;
41518;Laerm;27249;48.094;-1.690;2023-08-07T04:40:57;56.13;43.99;68.29;;
41518;Laerm;27249;48.094;-1.690;2023-08-07T04:43:22;52.68;44.54;65.79;;
41518;Laerm;27249;48.094;-1.690;2023-08-07T04:45:47;51.43;44.76;63.12;;
41518;Laerm;27249;48.094;-1.690;2023-08-07T04:48:13;53.74;46.15;64.53;;
41518;Laerm;27249;48.094;-1.690;2023-08-07T04:50:39;53.94;45.69;64.79;;
41518;Laerm;27249;48.094;-1.690;2023-08-07T04:53:04;54.78;45.99;63.92;;
41518;Laerm;27249;48.094;-1.690;2023-08-07T04:55:30;55.99;46.35;63.86;;
41518;Laerm;27249;48.094;-1.690;2023-08-07T04:57:55;53.09;45.42;61.44;;
41518;Laerm;27249;48.094;-1.690;2023-08-07T05:00:21;52.56;44.54;66.30;;
41518;Laerm;27249;48.094;-1.690;2023-08-07T05:02:46;52.04;44.94;64.52;;
41518;Laerm;27249;48.094;-1.690;2023-08-07T05:05:13;51.31;45.01;58.65;;
41518;Laerm;27249;48.094;-1.690;2023-08-07T05:07:39;52.80;45.51;61.76;;
41518;Laerm;27249;48.094;-1.690;2023-08-07T05:10:05;50.94;45.01;61.66;;
41518;Laerm;27249;48.094;-1.690;2023-08-07T05:12:30;55.84;45.36;65.20;;
41518;Laerm;27249;48.094;-1.690;2023-08-07T05:14:55;54.11;45.86;61.40;;
41518;Laerm;27249;48.094;-1.690;2023-08-07T05:17:20;55.87;47.90;67.68;;
41518;Laerm;27249;48.094;-1.690;2023-08-07T05:19:46;56.63;44.97;75.15;;
41518;Laerm;27249;48.094;-1.690;2023-08-07T05:22:11;55.29;47.18;66.13;;
41518;Laerm;27249;48.094;-1.690;2023-08-07T05:24:36;56.29;45.66;64.47;;
41518;Laerm;27249;48.094;-1.690;2023-08-07T05:27:08;52.90;44.76;69.53;;
41518;Laerm;27249;48.094;-1.690;2023-08-07T05:29:34;56.66;47.81;65.99;;
41518;Laerm;27249;48.094;-1.690;2023-08-07T05:31:59;54.63;45.57;64.85;;
41518;Laerm;27249;48.094;-1.690;2023-08-07T05:34:24;53.03;45.23;65.90;;
41518;Laerm;27249;48.094;-1.690;2023-08-07T05:36:50;53.57;45.60;62.42;;
41518;Laerm;27249;48.094;-1.690;2023-08-07T05:39:15;56.04;49.45;64.19;;
41518;Laerm;27249;48.094;-1.690;2023-08-07T05:41:40;56.19;48.12;68.10;;
41518;Laerm;27249;48.094;-1.690;2023-08-07T05:44:05;56.45;48.67;73.87;;
41518;Laerm;27249;48.094;-1.690;2023-08-07T05:46:31;57.95;49.57;70.79;;
41518;Laerm;27249;48.094;-1.690;2023-08-07T05:48:56;55.71;47.42;64.71;;
41518;Laerm;27249;48.094;-1.690;2023-08-07T05:51:21;54.64;45.97;62.17;;
41518;Laerm;27249;48.094;-1.690;2023-08-07T05:53:46;56.60;47.98;71.34;;
41518;Laerm;27249;48.094;-1.690;2023-08-07T05:56:12;56.69;47.57;70.66;;
41518;Laerm;27249;48.094;-1.690;2023-08-07T05:58:37;54.12;45.72;61.48;;
41518;Laerm;27249;48.094;-1.690;2023-08-07T06:01:02;54.52;46.45;62.47;;
41518;Laerm;27249;48.094;-1.690;2023-08-07T06:03:27;54.49;45.75;61.81;;
41518;Laerm;27249;48.094;-1.690;2023-08-07T06:05:53;55.93;47.18;66.48;;
41518;Laerm;27249;48.094;-1.690;2023-08-07T06:08:18;56.47;48.60;69.19;;
41518;Laerm;27249;48.094;-1.690;2023-08-07T06:10:44;55.77;46.78;68.80;;
41518;Laerm;27249;48.094;-1.690;2023-08-07T06:13:09;55.98;47.06;65.92;;
41518;Laerm;27249;48.094;-1.690;2023-08-07T06:15:34;56.54;48.92;64.91;;
41518;Laerm;27249;48.094;-1.690;2023-08-07T06:17:59;55.49;47.93;66.32;;
41518;Laerm;27249;48.094;-1.690;2023-08-07T06:20:24;54.91;47.21;62.49;;
41518;Laerm;27249;48.094;-1.690;2023-08-07T06:22:50;55.81;47.68;65.46;;
41518;Laerm;27249;48.094;-1.690;2023-08-07T06:25:15;55.57;49.80;62.09;;
41518;Laerm;27249;48.094;-1.690;2023-08-07T06:27:40;55.73;46.71;63.15;;
41518;Laerm;27249;48.094;-1.690;2023-08-07T06:30:05;55.11;45.33;63.30;;
41518;Laerm;27249;48.094;-1.690;2023-08-07T06:32:31;55.32;48.34;61.70;;
41518;Laerm;27249;48.094;-1.690;2023-08-07T06:34:56;56.78;48.05;63.08;;
41518;Laerm;27249;48.094;-1.690;2023-08-07T06:37:22;56.85;47.54;67.32;;
41518;Laerm;27249;48.094;-1.690;2023-08-07T06:39:48;56.99;49.60;63.69;;
41518;Laerm;27249;48.094;-1.690;2023-08-07T06:42:13;56.11;46.62;62.22;;
41518;Laerm;27249;48.094;-1.690;2023-08-07T06:44:38;54.67;48.80;62.12;;
41518;Laerm;27249;48.094;-1.690;2023-08-07T06:47:04;56.32;47.26;65.65;;
41518;Laerm;27249;48.094;-1.690;2023-08-07T06:49:29;55.94;48.69;61.86;;
41518;Laerm;27249;48.094;-1.690;2023-08-07T06:51:56;57.92;49.36;70.42;;
41518;Laerm;27249;48.094;-1.690;2023-08-07T06:54:21;56.79;45.36;67.51;;
41518;Laerm;27249;48.094;-1.690;2023-08-07T06:56:47;57.18;48.40;68.81;;
41518;Laerm;27249;48.094;-1.690;2023-08-07T06:59:12;55.21;49.08;64.15;;
41518;Laerm;27249;48.094;-1.690;2023-08-07T07:01:37;55.04;48.61;62.13;;
41518;Laerm;27249;48.094;-1.690;2023-08-07T07:04:02;56.02;47.84;65.91;;
41518;Laerm;27249;48.094;-1.690;2023-08-07T07:06:28;54.56;46.38;65.09;;
41518;Laerm;27249;48.094;-1.690;2023-08-07T07:08:54;55.05;46.35;63.63;;
41518;Laerm;27249;48.094;-1.690;2023-08-07T07:11:19;55.20;47.55;62.14;;
41518;Laerm;27249;48.094;-1.690;2023-08-07T07:13:44;54.61;48.15;66.47;;
41518;Laerm;27249;48.094;-1.690;2023-08-07T07:16:10;58.70;47.79;80.50;;
41518;Laerm;27249;48.094;-1.690;2023-08-07T07:18:38;62.44;48.96;81.88;;
41518;Laerm;27249;48.094;-1.690;2023-08-07T07:21:03;54.27;47.98;63.68;;
41518;Laerm;27249;48.094;-1.690;2023-08-07T07:23:28;55.16;47.18;64.87;;
41518;Laerm;27249;48.094;-1.690;2023-08-07T07:25:53;54.44;46.96;64.07;;
41518;Laerm;27249;48.094;-1.690;2023-08-07T07:28:19;54.69;46.91;69.25;;
41518;Laerm;27249;48.094;-1.690;2023-08-07T07:30:45;55.12;47.00;64.07;;
41518;Laerm;27249;48.094;-1.690;2023-08-07T07:33:10;53.39;44.92;61.97;;
41518;Laerm;27249;48.094;-1.690;2023-08-07T07:35:38;55.13;47.88;62.83;;
41518;Laerm;27249;48.094;-1.690;2023-08-07T07:38:04;56.97;48.71;67.14;;
41518;Laerm;27249;48.094;-1.690;2023-08-07T07:40:29;54.93;46.59;69.12;;
41518;Laerm;27249;48.094;-1.690;2023-08-07T07:42:54;56.29;46.69;66.46;;
41518;Laerm;27249;48.094;-1.690;2023-08-07T07:45:20;57.15;46.71;66.42;;
41518;Laerm;27249;48.094;-1.690;2023-08-07T07:47:45;54.33;44.23;63.51;;
41518;Laerm;27249;48.094;-1.690;2023-08-07T07:50:10;53.53;44.80;60.01;;
41518;Laerm;27249;48.094;-1.690;2023-08-07T07:52:37;54.41;47.44;64.94;;
41518;Laerm;27249;48.094;-1.690;2023-08-07T07:55:03;53.28;45.11;59.98;;
41518;Laerm;27249;48.094;-1.690;2023-08-07T07:57:28;55.82;45.60;71.33;;
41518;Laerm;27249;48.094;-1.690;2023-08-07T07:59:53;55.52;47.63;68.02;;
41518;Laerm;27249;48.094;-1.690;2023-08-07T08:02:18;54.83;46.82;66.05;;
41518;Laerm;27249;48.094;-1.690;2023-08-07T08:04:44;55.56;45.89;66.66;;
41518;Laerm;27249;48.094;-1.690;2023-08-07T08:07:09;54.04;46.55;62.60;;
41518;Laerm;27249;48.094;-1.690;2023-08-07T08:09:34;54.16;46.33;62.36;;
41518;Laerm;27249;48.094;-1.690;2023-08-07T08:11:59;52.99;43.77;67.55;;
41518;Laerm;27249;48.094;-1.690;2023-08-07T08:14:25;54.81;45.23;66.67;;
41518;Laerm;27249;48.094;-1.690;2023-08-07T08:16:50;54.70;46.43;63.33;;
41518;Laerm;27249;48.094;-1.690;2023-08-07T08:19:15;55.65;48.78;65.70;;
41518;Laerm;27249;48.094;-1.690;2023-08-07T08:21:41;54.62;48.46;68.21;;
41518;Laerm;27249;48.094;-1.690;2023-08-07T08:24:06;54.26;46.45;61.71;;
41518;Laerm;27249;48.094;-1.690;2023-08-07T08:26:32;54.13;45.69;67.47;;
41518;Laerm;27249;48.094;-1.690;2023-08-07T08:28:57;54.86;46.18;64.90;;
41518;Laerm;27249;48.094;-1.690;2023-08-07T08:31:22;54.04;47.18;67.26;;
41518;Laerm;27249;48.094;-1.690;2023-08-07T08:33:49;55.17;47.79;66.39;;
41518;Laerm;27249;48.094;-1.690;2023-08-07T08:36:14;53.29;44.90;63.27;;
41518;Laerm;27249;48.094;-1.690;2023-08-07T08:38:39;53.82;46.30;61.02;;
41518;Laerm;27249;48.094;-1.690;2023-08-07T08:41:04;52.31;45.36;59.82;;
41518;Laerm;27249;48.094;-1.690;2023-08-07T08:43:33;54.28;46.48;62.07;;
41518;Laerm;27249;48.094;-1.690;2023-08-07T08:45:59;54.53;45.91;64.40;;
41518;Laerm;27249;48.094;-1.690;2023-08-07T08:48:25;56.40;50.10;65.88;;
41518;Laerm;27249;48.094;-1.690;2023-08-07T08:50:53;52.97;46.45;62.14;;
41518;Laerm;27249;48.094;-1.690;2023-08-07T08:53:18;55.04;48.37;64.04;;
41518;Laerm;27249;48.094;-1.690;2023-08-07T08:55:45;55.03;45.23;66.82;;
41518;Laerm;27249;48.094;-1.690;2023-08-07T08:58:13;53.82;47.74;62.31;;
41518;Laerm;27249;48.094;-1.690;2023-08-07T09:00:39;55.20;48.76;62.61;;
41518;Laerm;27249;48.094;-1.690;2023-08-07T09:03:04;54.86;46.07;64.59;;
41518;Laerm;27249;48.094;-1.690;2023-08-07T09:05:30;55.16;46.59;63.71;;
41518;Laerm;27249;48.094;-1.690;2023-08-07T09:07:56;53.98;46.62;60.51;;
41518;Laerm;27249;48.094;-1.690;2023-08-07T09:10:21;54.75;46.61;62.37;;
41518;Laerm;27249;48.094;-1.690;2023-08-07T09:12:53;54.28;46.33;63.51;;
41518;Laerm;27249;48.094;-1.690;2023-08-07T09:15:19;53.51;44.11;64.63;;
41518;Laerm;27249;48.094;-1.690;2023-08-07T09:17:45;54.89;46.58;63.40;;
41518;Laerm;27249;48.094;-1.690;2023-08-07T09:20:11;56.22;44.47;67.02;;
41518;Laerm;27249;48.094;-1.690;2023-08-07T09:22:41;54.50;47.36;61.79;;
41518;Laerm;27249;48.094;-1.690;2023-08-07T09:25:07;55.22;44.03;70.58;;
41518;Laerm;27249;48.094;-1.690;2023-08-07T09:27:34;54.40;45.30;65.08;;
41518;Laerm;27249;48.094;-1.690;2023-08-07T09:30:01;54.16;45.69;61.35;;
41518;Laerm;27249;48.094;-1.690;2023-08-07T09:32:27;55.33;48.63;63.47;;
41518;Laerm;27249;48.094;-1.690;2023-08-07T09:34:53;55.88;44.23;66.64;;
41518;Laerm;27249;48.094;-1.690;2023-08-07T09:37:18;56.32;46.76;67.59;;
41518;Laerm;27249;48.094;-1.690;2023-08-07T09:39:43;54.90;46.40;64.23;;
41518;Laerm;27249;48.094;-1.690;2023-08-07T09:42:14;55.12;46.05;64.51;;
41518;Laerm;27249;48.094;-1.690;2023-08-07T09:44:43;56.50;48.66;70.49;;
41518;Laerm;27249;48.094;-1.690;2023-08-07T09:47:13;54.27;47.24;61.36;;
41518;Laerm;27249;48.094;-1.690;2023-08-07T09:49:39;54.05;46.18;61.17;;
41518;Laerm;27249;48.094;-1.690;2023-08-07T09:52:08;54.07;47.32;62.74;;
41518;Laerm;27249;48.094;-1.690;2023-08-07T09:54:34;54.95;45.42;61.81;;
41518;Laerm;27249;48.094;-1.690;2023-08-07T09:57:01;55.34;49.19;60.91;;
41518;Laerm;27249;48.094;-1.690;2023-08-07T09:59:27;55.37;47.48;68.15;;
41518;Laerm;27249;48.094;-1.690;2023-08-07T10:01:52;55.04;46.75;61.81;;
41518;Laerm;27249;48.094;-1.690;2023-08-07T10:04:18;54.65;45.77;62.37;;
41518;Laerm;27249;48.094;-1.690;2023-08-07T10:06:43;53.48;44.35;62.97;;
41518;Laerm;27249;48.094;-1.690;2023-08-07T10:09:08;55.32;45.45;64.21;;
41518;Laerm;27249;48.094;-1.690;2023-08-07T10:11:34;56.15;47.67;65.80;;
41518;Laerm;27249;48.094;-1.690;2023-08-07T10:13:59;55.63;49.32;61.51;;
41518;Laerm;27249;48.094;-1.690;2023-08-07T10:16:26;55.18;46.05;60.92;;
41518;Laerm;27249;48.094;-1.690;2023-08-07T10:18:52;54.37;44.62;62.47;;
41518;Laerm;27249;48.094;-1.690;2023-08-07T10:21:17;56.01;46.91;65.27;;
41518;Laerm;27249;48.094;-1.690;2023-08-07T10:23:43;55.51;45.30;70.24;;
41518;Laerm;27249;48.094;-1.690;2023-08-07T10:26:09;56.96;47.74;65.38;;
41518;Laerm;27249;48.094;-1.690;2023-08-07T10:28:36;56.68;46.10;73.19;;
41518;Laerm;27249;48.094;-1.690;2023-08-07T10:31:03;54.37;44.83;68.62;;
41518;Laerm;27249;48.094;-1.690;2023-08-07T10:33:29;55.48;48.34;65.97;;
41518;Laerm;27249;48.094;-1.690;2023-08-07T10:35:54;55.59;46.50;69.84;;
41518;Laerm;27249;48.094;-1.690;2023-08-07T10:38:24;54.83;47.54;61.35;;
41518;Laerm;27249;48.094;-1.690;2023-08-07T10:40:58;55.11;48.80;61.11;;
41518;Laerm;27249;48.094;-1.690;2023-08-07T10:43:23;55.31;48.21;68.68;;
41518;Laerm;27249;48.094;-1.690;2023-08-07T10:45:49;54.88;48.23;67.15;;
41518;Laerm;27249;48.094;-1.690;2023-08-07T10:48:17;55.09;49.11;64.83;;
41518;Laerm;27249;48.094;-1.690;2023-08-07T10:53:20;56.29;45.33;64.12;;
41518;Laerm;27249;48.094;-1.690;2023-08-07T10:55:53;54.82;45.54;62.48;;
41518;Laerm;27249;48.094;-1.690;2023-08-07T10:58:22;51.98;43.72;59.63;;
41518;Laerm;27249;48.094;-1.690;2023-08-07T11:00:48;53.54;45.63;60.88;;
41518;Laerm;27249;48.094;-1.690;2023-08-07T11:03:19;53.74;43.99;63.36;;
41518;Laerm;27249;48.094;-1.690;2023-08-07T11:05:45;53.91;44.65;61.50;;
41518;Laerm;27249;48.094;-1.690;2023-08-07T11:08:11;55.04;45.94;62.42;;
41518;Laerm;27249;48.094;-1.690;2023-08-07T11:10:36;54.28;46.64;61.27;;
41518;Laerm;27249;48.094;-1.690;2023-08-07T11:13:01;53.63;47.00;64.75;;
41518;Laerm;27249;48.094;-1.690;2023-08-07T11:15:27;55.53;45.69;67.67;;
41518;Laerm;27249;48.094;-1.690;2023-08-07T11:17:52;54.15;44.76;59.75;;
41518;Laerm;27249;48.094;-1.690;2023-08-07T11:20:18;57.28;44.58;71.68;;
41518;Laerm;27249;48.094;-1.690;2023-08-07T11:22:44;51.94;44.92;63.46;;
41518;Laerm;27249;48.094;-1.690;2023-08-07T11:25:09;54.36;45.75;67.37;;
41518;Laerm;27249;48.094;-1.690;2023-08-07T11:27:36;56.37;46.52;67.41;;
41518;Laerm;27249;48.094;-1.690;2023-08-07T11:30:02;54.07;46.18;62.87;;
41518;Laerm;27249;48.094;-1.690;2023-08-07T11:32:27;56.03;45.94;66.50;;
41518;Laerm;27249;48.094;-1.690;2023-08-07T11:34:53;52.68;45.69;59.51;;
41518;Laerm;27249;48.094;-1.690;2023-08-07T11:37:18;55.04;47.96;62.05;;
41518;Laerm;27249;48.094;-1.690;2023-08-07T11:39:44;54.64;45.77;66.34;;
41518;Laerm;27249;48.094;-1.690;2023-08-07T11:42:09;55.72;47.83;64.45;;
41518;Laerm;27249;48.094;-1.690;2023-08-07T11:44:34;54.11;46.18;64.62;;
41518;Laerm;27249;48.094;-1.690;2023-08-07T11:46:59;54.17;45.91;65.03;;
41518;Laerm;27249;48.094;-1.690;2023-08-07T11:49:25;54.47;48.74;65.73;;
41518;Laerm;27249;48.094;-1.690;2023-08-07T11:51:50;55.65;45.83;66.71;;
41518;Laerm;27249;48.094;-1.690;2023-08-07T11:54:16;57.02;47.76;70.03;;
41518;Laerm;27249;48.094;-1.690;2023-08-07T11:56:42;55.43;45.80;65.19;;
41518;Laerm;27249;48.094;-1.690;2023-08-07T11:59:10;55.42;47.96;64.63;;
41518;Laerm;27249;48.094;-1.690;2023-08-07T12:01:37;54.45;43.86;64.83;;
41518;Laerm;27249;48.094;-1.690;2023-08-07T12:06:30;54.87;46.20;67.10;;
41518;Laerm;27249;48.094;-1.690;2023-08-07T12:08:56;54.80;46.71;62.65;;
41518;Laerm;27249;48.094;-1.690;2023-08-07T12:11:22;54.02;45.91;61.36;;
41518;Laerm;27249;48.094;-1.690;2023-08-07T12:13:47;54.63;47.06;60.72;;
41518;Laerm;27249;48.094;-1.690;2023-08-07T12:16:13;54.34;47.55;62.67;;
41518;Laerm;27249;48.094;-1.690;2023-08-07T12:18:49;55.02;44.03;61.84;;
41518;Laerm;27249;48.094;-1.690;2023-08-07T12:21:24;55.09;45.27;70.19;;
41518;Laerm;27249;48.094;-1.690;2023-08-07T12:23:49;55.12;44.54;75.23;;
41518;Laerm;27249;48.094;-1.690;2023-08-07T12:26:15;55.48;47.50;65.40;;
41518;Laerm;27249;48.094;-1.690;2023-08-07T12:28:41;55.54;45.27;63.38;;
41518;Laerm;27249;48.094;-1.690;2023-08-07T12:31:06;54.94;46.55;65.51;;
41518;Laerm;27249;48.094;-1.690;2023-08-07T12:33:32;56.77;48.55;78.14;;
41518;Laerm;27249;48.094;-1.690;2023-08-07T12:35:57;60.02;45.66;76.91;;
41518;Laerm;27249;48.094;-1.690;2023-08-07T12:38:23;56.50;44.90;73.30;;
41518;Laerm;27249;48.094;-1.690;2023-08-07T12:40:49;55.37;47.24;65.13;;
41518;Laerm;27249;48.094;-1.690;2023-08-07T12:43:14;54.30;45.48;67.91;;
41518;Laerm;27249;48.094;-1.690;2023-08-07T12:45:39;55.43;47.20;69.95;;
41518;Laerm;27249;48.094;-1.690;2023-08-07T12:48:04;54.60;45.20;68.38;;
41518;Laerm;27249;48.094;-1.690;2023-08-07T12:50:30;55.68;46.06;68.89;;
41518;Laerm;27249;48.094;-1.690;2023-08-07T12:52:55;56.28;47.48;63.79;;
41518;Laerm;27249;48.094;-1.690;2023-08-07T12:55:21;54.29;47.28;63.95;;
41518;Laerm;27249;48.094;-1.690;2023-08-07T12:57:46;55.64;47.19;67.11;;
41518;Laerm;27249;48.094;-1.690;2023-08-07T13:00:13;54.99;46.62;64.54;;
41518;Laerm;27249;48.094;-1.690;2023-08-07T13:02:43;54.18;44.31;60.90;;
41518;Laerm;27249;48.094;-1.690;2023-08-07T13:05:09;54.57;44.51;60.94;;
41518;Laerm;27249;48.094;-1.690;2023-08-07T13:07:35;55.26;45.17;63.97;;
41518;Laerm;27249;48.094;-1.690;2023-08-07T13:10:00;53.19;45.54;62.63;;
41518;Laerm;27249;48.094;-1.690;2023-08-07T13:12:26;54.84;45.04;61.70;;
41518;Laerm;27249;48.094;-1.690;2023-08-07T13:14:51;55.99;47.10;75.07;;
41518;Laerm;27249;48.094;-1.690;2023-08-07T13:17:16;59.70;46.80;77.98;;
41518;Laerm;27249;48.094;-1.690;2023-08-07T13:19:42;54.15;45.39;62.98;;
41518;Laerm;27249;48.094;-1.690;2023-08-07T13:22:07;54.58;46.57;62.92;;
41518;Laerm;27249;48.094;-1.690;2023-08-07T13:24:32;53.93;47.02;60.92;;
41518;Laerm;27249;48.094;-1.690;2023-08-07T13:26:57;55.28;47.43;65.11;;
41518;Laerm;27249;48.094;-1.690;2023-08-07T13:29:23;57.48;48.23;72.75;;
41518;Laerm;27249;48.094;-1.690;2023-08-07T13:31:48;59.66;48.34;73.84;;